Baton Rouge — 2CZZ7 — position and weather

sailwx.info

Track history (hours):
 
Tides and Currents Weather Stations Pressure Air Temp Water Temp Dewpoint Dewpoint Depression Visibility Wind Speed Wind Dir Waves Ship Positions

Baton Rouge

Last reported at 2015-May-29 19:33 UTC. Time now 2015-May-29 20:29 UTC.
Position N 43°07' E 005°55'.

Length 62 m; draft 3.7 m.

Type: Pleasure craft. MMSI: 235077185.

Date/timePositionNaut miles runAvg speedWind from/ knotsBaromVisibWave heightAir tempDewpointWater temp
2015-May-29 19:33N 43°07' E 005°55'0 0.0
2015-May-29 18:33N 43°07' E 005°55'0 0.0
2015-May-29 17:28N 43°07' E 005°55'0 0.0
2015-May-29 16:34N 43°07' E 005°55'0 0.0
2015-May-29 15:30N 43°07' E 005°55'0 0.0
2015-May-29 14:34N 43°07' E 005°55'0 0.0
2015-May-29 13:31N 43°07' E 005°55'0 0.0
2015-May-29 12:31N 43°07' E 005°55'0 0.0
2015-May-29 11:33N 43°07' E 005°55'0 0.0
2015-May-29 10:33N 43°07' E 005°55'0 0.0
2015-May-29 09:30N 43°07' E 005°55'0 0.0
2015-May-29 08:33N 43°07' E 005°55'0 0.0
2015-May-29 07:33N 43°07' E 005°55'0 0.0
2015-May-29 06:33N 43°07' E 005°55'0 0.0
2015-May-29 05:33N 43°07' E 005°55'0 0.0
2015-May-29 04:33N 43°07' E 005°55'0 0.0
2015-May-29 03:33N 43°07' E 005°55'0 0.0
2015-May-29 02:33N 43°07' E 005°55'0 0.0
2015-May-29 01:33N 43°07' E 005°55'0 0.0
2015-May-29 00:33N 43°07' E 005°55'0 0.0
2015-May-28 23:33N 43°07' E 005°55'0 0.0
2015-May-28 22:33N 43°07' E 005°55'0 0.0
2015-May-28 21:33N 43°07' E 005°55'0 0.0
2015-May-28 20:33N 43°07' E 005°55'0 0.0
2015-May-28 19:33N 43°07' E 005°55'0 0.0
2015-May-28 18:33N 43°07' E 005°55'0 0.0
2015-May-28 17:33N 43°07' E 005°55'0 0.0
2015-May-28 16:33N 43°07' E 005°55'0 0.0
2015-May-28 15:33N 43°07' E 005°55'0 0.0
2015-May-28 14:33N 43°07' E 005°55'0 0.0
2015-May-28 13:33N 43°07' E 005°55'0 0.0
2015-May-28 12:33N 43°07' E 005°55'0 0.0
2015-May-28 11:33N 43°07' E 005°55'0 0.0
2015-May-28 10:33N 43°07' E 005°55'0 0.0
2015-May-28 09:33N 43°07' E 005°55'0 0.0
2015-May-28 08:33N 43°07' E 005°55'0 0.0
2015-May-28 07:30N 43°07' E 005°55'1 0.7
2015-May-28 06:33N 43°07' E 005°55'9 4.0
2015-May-28 04:25N 43°04' E 006°07'0 0.0
2015-May-28 03:33N 43°04' E 006°07'0 0.0
2015-May-28 02:28N 43°04' E 006°07'0 0.0
2015-May-28 01:33N 43°04' E 006°07'0 0.0
2015-May-28 00:21N 43°04' E 006°07'0 0.0
2015-May-27 23:06N 43°04' E 006°07'0 0.0
2015-May-27 22:23N 43°04' E 006°07'0 0.0
2015-May-27 18:29N 43°04' E 006°07'45 8.8
2015-May-27 13:20N 43°26' E 007°01'1013.3
2015-May-27 12:33N 43°35' E 007°09'1 0.9
2015-May-27 11:33N 43°35' E 007°08'0 0.0
2015-May-27 10:33N 43°35' E 007°08'0 0.0
2015-May-27 09:33N 43°35' E 007°08'0 0.0
2015-May-27 08:33N 43°35' E 007°08'0 0.0
2015-May-27 07:33N 43°35' E 007°08'0 0.0
2015-May-27 06:33N 43°35' E 007°08'0 0.0
2015-May-27 05:33N 43°35' E 007°08'0 0.0
2015-May-27 04:33N 43°35' E 007°08'0 0.0
2015-May-27 03:33N 43°35' E 007°08'0 0.0
2015-May-27 02:33N 43°35' E 007°08'0 0.0
2015-May-27 01:33N 43°35' E 007°08'0 0.0
2015-May-27 00:27N 43°35' E 007°08'0 0.0
2015-May-26 23:33N 43°35' E 007°08'0 0.0
2015-May-26 22:33N 43°35' E 007°08'0 0.0
2015-May-26 21:33N 43°35' E 007°08'0 0.0
2015-May-26 20:33N 43°35' E 007°08'0 0.0
2015-May-26 19:27N 43°35' E 007°08'0 0.0
2015-May-26 18:33N 43°35' E 007°08'0 0.0
2015-May-26 17:33N 43°35' E 007°08'0 0.0
2015-May-26 16:33N 43°35' E 007°08'0 0.0
2015-May-26 15:33N 43°35' E 007°08'0 0.0
2015-May-26 14:33N 43°35' E 007°08'0 0.0
2015-May-26 13:33N 43°35' E 007°08'0 0.0
2015-May-26 12:33N 43°35' E 007°08'0 0.0
2015-May-26 11:33N 43°35' E 007°08'0 0.0
2015-May-26 10:33N 43°35' E 007°08'0 0.0
2015-May-26 09:33N 43°35' E 007°08'0 0.0
2015-May-26 08:21N 43°35' E 007°08'0 0.0
2015-May-26 07:33N 43°35' E 007°08'0 0.0
2015-May-26 06:33N 43°35' E 007°08'0 0.0
2015-May-26 05:33N 43°35' E 007°08'0 0.0
2015-May-26 04:27N 43°35' E 007°08'0 0.0
2015-May-26 03:33N 43°35' E 007°08'0 0.0
2015-May-26 02:32N 43°35' E 007°08'0 0.0
2015-May-26 01:32N 43°35' E 007°08'0 0.0
2015-May-26 00:33N 43°35' E 007°08'0 0.0
2015-May-25 23:33N 43°35' E 007°08'0 0.0
2015-May-25 22:33N 43°35' E 007°08'0 0.0
2015-May-25 21:32N 43°35' E 007°08'0 0.0
2015-May-25 20:32N 43°35' E 007°08'0 0.0
2015-May-25 19:33N 43°35' E 007°08'0 0.0
2015-May-25 18:32N 43°35' E 007°08'0 0.0
2015-May-25 17:32N 43°35' E 007°08'0 0.1
2015-May-25 16:34N 43°35' E 007°08'10 4.3
2015-May-25 14:22N 43°31' E 006°57'0 0.2
2015-May-25 12:33N 43°31' E 006°57'19 9.4
2015-May-25 10:34N 43°12' E 006°56'  
2015-May-22 17:14N 43°31' E 006°57'0 0.0
2015-May-22 16:14N 43°31' E 006°57'0 0.0
2015-May-22 14:26N 43°31' E 006°57'0 0.0
2015-May-22 08:11N 43°31' E 006°57'5 7.7
2015-May-22 07:32N 43°30' E 007°03'7 6.5
2015-May-22 06:29N 43°35' E 007°08'0 0.0
2015-May-22 05:29N 43°35' E 007°08'0 0.0
2015-May-22 04:29N 43°35' E 007°08'0 0.0
2015-May-22 03:29N 43°35' E 007°08'0 0.0
2015-May-22 02:29N 43°35' E 007°08'0 0.0
2015-May-22 01:29N 43°35' E 007°08'0 0.0
2015-May-22 00:29N 43°35' E 007°08'0 0.0
2015-May-21 23:29N 43°35' E 007°08'0 0.0
2015-May-21 22:23N 43°35' E 007°08'0 0.0
2015-May-21 21:29N 43°35' E 007°08'0 0.0
2015-May-21 20:29N 43°35' E 007°08'0 0.0
2015-May-21 19:29N 43°35' E 007°08'0 0.0
2015-May-21 18:29N 43°35' E 007°08'0 0.0
2015-May-21 17:29N 43°35' E 007°08'0 0.0
2015-May-21 16:29N 43°35' E 007°08'0 0.0
2015-May-21 15:29N 43°35' E 007°08'0 0.0
2015-May-21 14:29N 43°35' E 007°08'0 0.0
2015-May-21 13:29N 43°35' E 007°08'0 0.0
2015-May-21 12:29N 43°35' E 007°08'0 0.0
2015-May-21 11:29N 43°35' E 007°08'0 0.0
2015-May-21 10:29N 43°35' E 007°08'0 0.0
2015-May-21 09:29N 43°35' E 007°08'0 0.0
2015-May-21 08:29N 43°35' E 007°08'1 0.7
2015-May-21 07:33N 43°35' E 007°08'0 0.2
2015-May-21 06:31N 43°35' E 007°08'0 0.0
2015-May-21 05:25N 43°35' E 007°08'0 0.0
2015-May-21 04:31N 43°35' E 007°08'0 0.0
2015-May-21 03:31N 43°34' E 007°08'0 0.0
2015-May-21 02:30N 43°34' E 007°08'0 0.1
2015-May-21 01:25N 43°35' E 007°08'0 0.0
2015-May-21 00:31N 43°35' E 007°08'0 0.0
2015-May-20 23:31N 43°35' E 007°08'0 0.0
2015-May-20 22:24N 43°35' E 007°08'0 0.0
2015-May-20 21:31N 43°35' E 007°08'0 0.0
2015-May-20 20:31N 43°35' E 007°08'0 0.0
2015-May-20 19:30N 43°35' E 007°08'0 0.0
2015-May-20 18:31N 43°35' E 007°08'0 0.0
2015-May-20 17:31N 43°35' E 007°08'0 0.1
2015-May-20 16:31N 43°35' E 007°08'0 0.1
2015-May-20 15:30N 43°35' E 007°08'0 0.1
2015-May-20 14:30N 43°35' E 007°08'0 0.0
2015-May-20 13:30N 43°35' E 007°08'0 0.0
2015-May-20 12:31N 43°35' E 007°08'0 0.0
2015-May-20 11:31N 43°35' E 007°08'0 0.0
2015-May-20 10:30N 43°35' E 007°08'0 0.0
2015-May-20 09:30N 43°35' E 007°08'0 0.0
2015-May-20 08:30N 43°35' E 007°08'0 0.1
2015-May-20 07:30N 43°35' E 007°08'0 0.0
2015-May-20 06:30N 43°35' E 007°08'0 0.0
2015-May-20 05:24N 43°35' E 007°08'0 0.0
2015-May-20 04:30N 43°35' E 007°08'0 0.0
2015-May-20 03:30N 43°35' E 007°08'0 0.0
2015-May-20 02:30N 43°35' E 007°08'0 0.0
2015-May-20 01:30N 43°35' E 007°08'0 0.0
2015-May-20 00:30N 43°35' E 007°08'0 0.0
2015-May-19 23:30N 43°35' E 007°08'0 0.0
2015-May-19 22:30N 43°35' E 007°08'0 0.0
2015-May-19 21:30N 43°35' E 007°08'0 0.0
2015-May-19 20:30N 43°35' E 007°08'  
Track history (hours):
 
Tides and Currents Weather Stations Pressure Air Temp Water Temp Dewpoint Dewpoint Depression Visibility Wind Speed Wind Dir Waves Ship Positions

Baton Rouge

Last reported at 2015-May-29 19:33 UTC. Time now 2015-May-29 20:29 UTC.
Position N 43°07' E 005°55'.

Length 62 m; draft 3.7 m.

Type: Pleasure craft. MMSI: 235077185.

Date/timePositionNaut miles runAvg speedWind from/ knotsBaromVisibWave heightAir tempDewpointWater temp
2015-May-29 19:33N 43°07' E 005°55'0 0.0
2015-May-29 18:33N 43°07' E 005°55'0 0.0
2015-May-29 17:28N 43°07' E 005°55'0 0.0
2015-May-29 16:34N 43°07' E 005°55'0 0.0
2015-May-29 15:30N 43°07' E 005°55'0 0.0
2015-May-29 14:34N 43°07' E 005°55'0 0.0
2015-May-29 13:31N 43°07' E 005°55'0 0.0
2015-May-29 12:31N 43°07' E 005°55'0 0.0
2015-May-29 11:33N 43°07' E 005°55'0 0.0
2015-May-29 10:33N 43°07' E 005°55'0 0.0
2015-May-29 09:30N 43°07' E 005°55'0 0.0
2015-May-29 08:33N 43°07' E 005°55'0 0.0
2015-May-29 07:33N 43°07' E 005°55'0 0.0
2015-May-29 06:33N 43°07' E 005°55'0 0.0
2015-May-29 05:33N 43°07' E 005°55'0 0.0
2015-May-29 04:33N 43°07' E 005°55'0 0.0
2015-May-29 03:33N 43°07' E 005°55'0 0.0
2015-May-29 02:33N 43°07' E 005°55'0 0.0
2015-May-29 01:33N 43°07' E 005°55'0 0.0
2015-May-29 00:33N 43°07' E 005°55'0 0.0
2015-May-28 23:33N 43°07' E 005°55'0 0.0
2015-May-28 22:33N 43°07' E 005°55'0 0.0
2015-May-28 21:33N 43°07' E 005°55'0 0.0
2015-May-28 20:33N 43°07' E 005°55'0 0.0
2015-May-28 19:33N 43°07' E 005°55'0 0.0
2015-May-28 18:33N 43°07' E 005°55'0 0.0
2015-May-28 17:33N 43°07' E 005°55'0 0.0
2015-May-28 16:33N 43°07' E 005°55'0 0.0
2015-May-28 15:33N 43°07' E 005°55'0 0.0
2015-May-28 14:33N 43°07' E 005°55'0 0.0
2015-May-28 13:33N 43°07' E 005°55'0 0.0
2015-May-28 12:33N 43°07' E 005°55'0 0.0
2015-May-28 11:33N 43°07' E 005°55'0 0.0
2015-May-28 10:33N 43°07' E 005°55'0 0.0
2015-May-28 09:33N 43°07' E 005°55'0 0.0
2015-May-28 08:33N 43°07' E 005°55'0 0.0
2015-May-28 07:30N 43°07' E 005°55'1 0.7
2015-May-28 06:33N 43°07' E 005°55'9 4.0
2015-May-28 04:25N 43°04' E 006°07'0 0.0
2015-May-28 03:33N 43°04' E 006°07'0 0.0
2015-May-28 02:28N 43°04' E 006°07'0 0.0
2015-May-28 01:33N 43°04' E 006°07'0 0.0
2015-May-28 00:21N 43°04' E 006°07'0 0.0
2015-May-27 23:06N 43°04' E 006°07'0 0.0
2015-May-27 22:23N 43°04' E 006°07'0 0.0
2015-May-27 18:29N 43°04' E 006°07'45 8.8
2015-May-27 13:20N 43°26' E 007°01'1013.3
2015-May-27 12:33N 43°35' E 007°09'1 0.9
2015-May-27 11:33N 43°35' E 007°08'0 0.0
2015-May-27 10:33N 43°35' E 007°08'0 0.0
2015-May-27 09:33N 43°35' E 007°08'0 0.0
2015-May-27 08:33N 43°35' E 007°08'0 0.0
2015-May-27 07:33N 43°35' E 007°08'0 0.0
2015-May-27 06:33N 43°35' E 007°08'0 0.0
2015-May-27 05:33N 43°35' E 007°08'0 0.0
2015-May-27 04:33N 43°35' E 007°08'0 0.0
2015-May-27 03:33N 43°35' E 007°08'0 0.0
2015-May-27 02:33N 43°35' E 007°08'0 0.0
2015-May-27 01:33N 43°35' E 007°08'0 0.0
2015-May-27 00:27N 43°35' E 007°08'0 0.0
2015-May-26 23:33N 43°35' E 007°08'0 0.0
2015-May-26 22:33N 43°35' E 007°08'0 0.0
2015-May-26 21:33N 43°35' E 007°08'0 0.0
2015-May-26 20:33N 43°35' E 007°08'0 0.0
2015-May-26 19:27N 43°35' E 007°08'0 0.0
2015-May-26 18:33N 43°35' E 007°08'0 0.0
2015-May-26 17:33N 43°35' E 007°08'0 0.0
2015-May-26 16:33N 43°35' E 007°08'0 0.0
2015-May-26 15:33N 43°35' E 007°08'0 0.0
2015-May-26 14:33N 43°35' E 007°08'0 0.0
2015-May-26 13:33N 43°35' E 007°08'0 0.0
2015-May-26 12:33N 43°35' E 007°08'0 0.0
2015-May-26 11:33N 43°35' E 007°08'0 0.0
2015-May-26 10:33N 43°35' E 007°08'0 0.0
2015-May-26 09:33N 43°35' E 007°08'0 0.0
2015-May-26 08:21N 43°35' E 007°08'0 0.0
2015-May-26 07:33N 43°35' E 007°08'0 0.0
2015-May-26 06:33N 43°35' E 007°08'0 0.0
2015-May-26 05:33N 43°35' E 007°08'0 0.0
2015-May-26 04:27N 43°35' E 007°08'0 0.0
2015-May-26 03:33N 43°35' E 007°08'0 0.0
2015-May-26 02:32N 43°35' E 007°08'0 0.0
2015-May-26 01:32N 43°35' E 007°08'0 0.0
2015-May-26 00:33N 43°35' E 007°08'0 0.0
2015-May-25 23:33N 43°35' E 007°08'0 0.0
2015-May-25 22:33N 43°35' E 007°08'0 0.0
2015-May-25 21:32N 43°35' E 007°08'0 0.0
2015-May-25 20:32N 43°35' E 007°08'0 0.0
2015-May-25 19:33N 43°35' E 007°08'0 0.0
2015-May-25 18:32N 43°35' E 007°08'0 0.0
2015-May-25 17:32N 43°35' E 007°08'0 0.1
2015-May-25 16:34N 43°35' E 007°08'10 4.3
2015-May-25 14:22N 43°31' E 006°57'0 0.2
2015-May-25 12:33N 43°31' E 006°57'19 9.4
2015-May-25 10:34N 43°12' E 006°56'  
2015-May-22 17:14N 43°31' E 006°57'0 0.0
2015-May-22 16:14N 43°31' E 006°57'0 0.0
2015-May-22 14:26N 43°31' E 006°57'0 0.0
2015-May-22 08:11N 43°31' E 006°57'5 7.7
2015-May-22 07:32N 43°30' E 007°03'7 6.5
2015-May-22 06:29N 43°35' E 007°08'0 0.0
2015-May-22 05:29N 43°35' E 007°08'0 0.0
2015-May-22 04:29N 43°35' E 007°08'0 0.0
2015-May-22 03:29N 43°35' E 007°08'0 0.0
2015-May-22 02:29N 43°35' E 007°08'0 0.0
2015-May-22 01:29N 43°35' E 007°08'0 0.0
2015-May-22 00:29N 43°35' E 007°08'0 0.0
2015-May-21 23:29N 43°35' E 007°08'0 0.0
2015-May-21 22:23N 43°35' E 007°08'0 0.0
2015-May-21 21:29N 43°35' E 007°08'0 0.0
2015-May-21 20:29N 43°35' E 007°08'0 0.0
2015-May-21 19:29N 43°35' E 007°08'0 0.0
2015-May-21 18:29N 43°35' E 007°08'0 0.0
2015-May-21 17:29N 43°35' E 007°08'0 0.0
2015-May-21 16:29N 43°35' E 007°08'0 0.0
2015-May-21 15:29N 43°35' E 007°08'0 0.0
2015-May-21 14:29N 43°35' E 007°08'0 0.0
2015-May-21 13:29N 43°35' E 007°08'0 0.0
2015-May-21 12:29N 43°35' E 007°08'0 0.0
2015-May-21 11:29N 43°35' E 007°08'0 0.0
2015-May-21 10:29N 43°35' E 007°08'0 0.0
2015-May-21 09:29N 43°35' E 007°08'0 0.0
2015-May-21 08:29N 43°35' E 007°08'1 0.7
2015-May-21 07:33N 43°35' E 007°08'0 0.2
2015-May-21 06:31N 43°35' E 007°08'0 0.0
2015-May-21 05:25N 43°35' E 007°08'0 0.0
2015-May-21 04:31N 43°35' E 007°08'0 0.0
2015-May-21 03:31N 43°34' E 007°08'0 0.0
2015-May-21 02:30N 43°34' E 007°08'0 0.1
2015-May-21 01:25N 43°35' E 007°08'0 0.0
2015-May-21 00:31N 43°35' E 007°08'0 0.0
2015-May-20 23:31N 43°35' E 007°08'0 0.0
2015-May-20 22:24N 43°35' E 007°08'0 0.0
2015-May-20 21:31N 43°35' E 007°08'0 0.0
2015-May-20 20:31N 43°35' E 007°08'0 0.0
2015-May-20 19:30N 43°35' E 007°08'0 0.0
2015-May-20 18:31N 43°35' E 007°08'0 0.0
2015-May-20 17:31N 43°35' E 007°08'0 0.1
2015-May-20 16:31N 43°35' E 007°08'0 0.1
2015-May-20 15:30N 43°35' E 007°08'0 0.1
2015-May-20 14:30N 43°35' E 007°08'0 0.0
2015-May-20 13:30N 43°35' E 007°08'0 0.0
2015-May-20 12:31N 43°35' E 007°08'0 0.0
2015-May-20 11:31N 43°35' E 007°08'0 0.0
2015-May-20 10:30N 43°35' E 007°08'0 0.0
2015-May-20 09:30N 43°35' E 007°08'0 0.0
2015-May-20 08:30N 43°35' E 007°08'0 0.1
2015-May-20 07:30N 43°35' E 007°08'0 0.0
2015-May-20 06:30N 43°35' E 007°08'0 0.0
2015-May-20 05:24N 43°35' E 007°08'0 0.0
2015-May-20 04:30N 43°35' E 007°08'0 0.0
2015-May-20 03:30N 43°35' E 007°08'0 0.0
2015-May-20 02:30N 43°35' E 007°08'0 0.0
2015-May-20 01:30N 43°35' E 007°08'0 0.0
2015-May-20 00:30N 43°35' E 007°08'0 0.0
2015-May-19 23:30N 43°35' E 007°08'0 0.0
2015-May-19 22:30N 43°35' E 007°08'0 0.0
2015-May-19 21:30N 43°35' E 007°08'0 0.0
2015-May-19 20:30N 43°35' E 007°08'  

Dump ship's entire track history